createdAt,value
2023-04-24T00:00:47.263Z,5.43
2023-04-24T00:01:49.772Z,4.70
2023-04-24T00:02:52.307Z,5.45
2023-04-24T00:03:54.949Z,5.05
2023-04-24T00:04:57.586Z,5.63
2023-04-24T00:06:00.155Z,5.50
2023-04-24T00:07:02.514Z,6.00
2023-04-24T00:08:04.887Z,5.65
2023-04-24T00:09:07.217Z,5.15
2023-04-24T00:10:09.908Z,5.60
2023-04-24T00:11:12.334Z,5.57
2023-04-24T00:12:14.638Z,5.38
2023-04-24T00:13:16.884Z,5.45
2023-04-24T00:14:19.242Z,6.32
2023-04-24T00:15:21.594Z,6.28
2023-04-24T00:16:24.452Z,5.95
2023-04-24T00:17:26.802Z,6.95
2023-04-24T00:18:29.095Z,6.07
2023-04-24T00:19:31.475Z,6.00
2023-04-24T00:20:34.500Z,6.80
2023-04-24T00:21:36.710Z,7.10
2023-04-24T00:22:39.141Z,5.90
2023-04-24T00:23:41.540Z,6.45
2023-04-24T00:24:44.219Z,6.40
2023-04-24T00:25:46.517Z,5.75
2023-04-24T00:26:48.861Z,5.72
2023-04-24T00:27:51.499Z,6.18
2023-04-24T00:28:53.804Z,7.10
2023-04-24T00:29:56.097Z,6.90
2023-04-24T00:30:58.514Z,6.95
2023-04-24T00:32:00.935Z,6.75
2023-04-24T00:33:03.961Z,6.35
2023-04-24T00:34:06.685Z,6.00
2023-04-24T00:35:09.129Z,6.05
2023-04-24T00:36:11.368Z,5.72
2023-04-24T00:37:13.677Z,5.93
2023-04-24T00:38:15.935Z,6.20
2023-04-24T00:39:18.383Z,5.60
2023-04-24T00:40:20.786Z,5.22
2023-04-24T00:41:23.877Z,6.20
2023-04-24T00:42:26.871Z,5.53
2023-04-24T00:43:29.264Z,5.32
2023-04-24T00:44:31.557Z,5.97
2023-04-24T00:45:33.990Z,5.13
2023-04-24T00:46:37.222Z,4.90
2023-04-24T00:47:40.005Z,5.82
2023-04-24T00:48:42.577Z,5.07
2023-04-24T00:49:45.209Z,5.50
2023-04-24T00:50:47.774Z,6.03
2023-04-24T00:51:52.256Z,4.63
2023-04-24T00:52:54.771Z,5.70
2023-04-24T00:53:57.084Z,7.07
2023-04-24T00:54:59.763Z,7.05
2023-04-24T00:56:03.272Z,5.78
2023-04-24T00:57:06.006Z,6.28
2023-04-24T00:58:08.440Z,5.90
2023-04-24T00:59:11.807Z,6.45
2023-04-24T01:00:16.040Z,6.20
2023-04-24T01:01:22.046Z,5.68
2023-04-24T01:02:25.501Z,5.50
2023-04-24T01:03:31.036Z,5.82
2023-04-24T01:04:33.799Z,5.72
2023-04-24T01:05:36.204Z,5.25
2023-04-24T01:06:40.783Z,5.15
2023-04-24T01:07:46.797Z,5.28
2023-04-24T01:08:49.699Z,6.10
2023-04-24T01:09:53.205Z,6.00
2023-04-24T01:10:57.856Z,4.75
2023-04-24T01:12:01.544Z,5.20
2023-04-24T01:13:03.856Z,5.18
2023-04-24T01:14:06.109Z,4.65
2023-04-24T01:15:09.582Z,4.70
2023-04-24T01:16:11.915Z,5.38
2023-04-24T01:17:14.259Z,5.20
2023-04-24T01:18:17.146Z,4.60
2023-04-24T01:19:20.364Z,5.43
2023-04-24T01:20:23.609Z,5.20
2023-04-24T01:21:28.804Z,6.20
2023-04-24T01:22:31.128Z,4.60
2023-04-24T01:23:33.399Z,4.80
2023-04-24T01:24:35.670Z,4.93
2023-04-24T01:25:38.285Z,4.35
2023-04-24T01:26:40.582Z,4.18
2023-04-24T01:27:43.128Z,4.43
2023-04-24T01:28:45.479Z,4.47
2023-04-24T01:29:50.321Z,4.00
2023-04-24T01:30:53.737Z,4.50
2023-04-24T01:31:59.642Z,4.00
2023-04-24T01:33:02.569Z,4.68
2023-04-24T01:34:04.997Z,4.95
2023-04-24T01:35:08.508Z,5.00
2023-04-24T01:36:12.513Z,4.60
2023-04-24T01:37:14.812Z,4.15
2023-04-24T01:38:17.236Z,4.45
2023-04-24T01:39:21.585Z,4.43
2023-04-24T01:40:23.985Z,4.60
2023-04-24T01:41:26.414Z,4.43
2023-04-24T01:42:28.780Z,4.68
2023-04-24T01:43:31.413Z,4.82
2023-04-24T01:44:34.767Z,4.47
2023-04-24T01:45:37.062Z,4.32
2023-04-24T01:46:40.336Z,4.20
2023-04-24T01:47:43.210Z,5.70
2023-04-24T01:48:46.858Z,4.93
2023-04-24T01:49:49.589Z,4.50
2023-04-24T01:50:51.902Z,4.35
2023-04-24T01:51:54.301Z,4.45
2023-04-24T01:52:56.551Z,4.30
2023-04-24T01:53:58.921Z,3.78
2023-04-24T01:55:01.817Z,4.07
2023-04-24T01:56:04.790Z,3.92
2023-04-24T01:57:07.286Z,3.63
2023-04-24T01:58:09.842Z,4.63
2023-04-24T01:59:12.718Z,3.97
2023-04-24T02:00:15.433Z,3.92
2023-04-24T02:01:22.076Z,3.70
2023-04-24T02:02:31.183Z,3.72
2023-04-24T02:03:33.826Z,4.65
2023-04-24T02:04:36.258Z,3.60
2023-04-24T02:05:38.541Z,3.90
2023-04-24T02:06:40.946Z,3.40
2023-04-24T02:07:43.265Z,3.58
2023-04-24T02:08:45.598Z,3.38
2023-04-24T02:09:48.192Z,3.33
2023-04-24T02:10:50.443Z,4.00
2023-04-24T02:11:52.807Z,3.90
2023-04-24T02:12:55.075Z,3.83
2023-04-24T02:14:00.278Z,4.05
2023-04-24T02:15:02.664Z,3.55
2023-04-24T02:16:05.249Z,4.07
2023-04-24T02:17:07.759Z,3.38
2023-04-24T02:18:13.840Z,3.55
2023-04-24T02:19:16.315Z,3.55
2023-04-24T02:20:18.988Z,3.38
2023-04-24T02:21:21.355Z,2.88
2023-04-24T02:22:23.589Z,3.15
2023-04-24T02:23:26.505Z,3.45
2023-04-24T02:24:28.780Z,4.22
2023-04-24T02:25:31.409Z,3.40
2023-04-24T02:26:33.738Z,3.78
2023-04-24T02:27:36.029Z,4.20
2023-04-24T02:28:41.626Z,4.88
2023-04-24T02:29:44.164Z,3.30
2023-04-24T02:30:46.704Z,3.85
2023-04-24T02:31:49.690Z,3.88
2023-04-24T02:32:52.607Z,3.60
2023-04-24T02:33:54.973Z,3.30
2023-04-24T02:34:57.275Z,3.90
2023-04-24T02:35:59.647Z,3.40
2023-04-24T02:37:02.092Z,3.95
2023-04-24T02:38:04.855Z,5.30
2023-04-24T02:39:07.496Z,3.92
2023-04-24T02:40:10.632Z,4.00
2023-04-24T02:41:12.976Z,3.70
2023-04-24T02:42:15.283Z,3.40
2023-04-24T02:43:17.535Z,4.55
2023-04-24T02:44:19.977Z,3.70
2023-04-24T02:45:22.483Z,3.80
2023-04-24T02:46:25.015Z,5.65
2023-04-24T02:47:27.384Z,5.30
2023-04-24T02:48:29.721Z,4.50
2023-04-24T02:49:32.116Z,4.60
2023-04-24T02:50:34.705Z,7.68
2023-04-24T02:51:39.196Z,5.40
2023-04-24T02:52:41.508Z,5.78
2023-04-24T02:53:44.002Z,5.38
2023-04-24T02:54:46.263Z,5.70
2023-04-24T02:55:48.660Z,4.88
2023-04-24T02:56:51.440Z,5.25
2023-04-24T02:57:53.651Z,5.32
2023-04-24T02:58:56.056Z,5.20
2023-04-24T02:59:58.303Z,4.50
2023-04-24T03:01:01.571Z,4.65
2023-04-24T03:02:04.091Z,4.55
2023-04-24T03:03:06.767Z,4.30
2023-04-24T03:04:09.482Z,4.40
2023-04-24T03:05:13.259Z,4.85
2023-04-24T03:06:15.576Z,5.68
2023-04-24T03:07:17.908Z,4.50
2023-04-24T03:08:20.280Z,4.82
2023-04-24T03:09:22.931Z,5.13
2023-04-24T03:10:25.618Z,5.00
2023-04-24T03:11:27.897Z,5.18
2023-04-24T03:12:30.141Z,4.68
2023-04-24T03:13:32.411Z,4.32
2023-04-24T03:14:34.754Z,4.68
2023-04-24T03:15:37.019Z,4.95
2023-04-24T03:16:39.476Z,4.65
2023-04-24T03:17:42.964Z,4.60
2023-04-24T03:18:45.521Z,4.47
2023-04-24T03:19:48.739Z,4.40
2023-04-24T03:20:51.072Z,4.47
2023-04-24T03:21:53.448Z,4.43
2023-04-24T03:22:55.843Z,4.40
2023-04-24T03:23:58.535Z,4.90
2023-04-24T03:25:01.277Z,4.60
2023-04-24T03:26:03.748Z,4.45
2023-04-24T03:27:07.794Z,4.22
2023-04-24T03:28:27.433Z,5.65
2023-04-24T03:29:39.087Z,5.00
2023-04-24T03:30:41.824Z,5.13
2023-04-24T03:31:44.999Z,5.40
2023-04-24T03:32:47.633Z,5.25
2023-04-24T03:33:54.125Z,4.55
2023-04-24T03:34:56.406Z,4.55
2023-04-24T03:35:58.752Z,5.47
2023-04-24T03:37:01.403Z,5.40
2023-04-24T03:38:05.700Z,5.07
2023-04-24T03:39:31.164Z,5.30
2023-04-24T03:40:34.685Z,6.13
2023-04-24T03:41:38.292Z,4.80
2023-04-24T03:42:46.694Z,5.20
2023-04-24T03:43:49.520Z,5.45
2023-04-24T03:44:52.066Z,5.07
2023-04-24T03:45:58.169Z,5.70
2023-04-24T03:47:01.175Z,5.60
2023-04-24T03:48:03.739Z,5.40
2023-04-24T03:49:06.407Z,5.05
2023-04-24T03:50:13.138Z,5.55
2023-04-24T03:51:16.767Z,5.30
2023-04-24T03:52:21.982Z,5.30
2023-04-24T03:53:24.340Z,5.60
2023-04-24T03:54:26.721Z,5.32
2023-04-24T03:55:30.032Z,4.95
2023-04-24T03:56:32.314Z,4.93
2023-04-24T03:57:34.721Z,5.28
2023-04-24T03:58:45.010Z,4.57
2023-04-24T03:59:47.697Z,4.75
2023-04-24T04:00:53.900Z,4.70
2023-04-24T04:02:14.281Z,4.57
2023-04-24T04:03:17.396Z,4.75
2023-04-24T04:04:19.940Z,5.25
2023-04-24T04:05:22.570Z,5.50
2023-04-24T04:06:25.048Z,5.00
2023-04-24T04:07:30.905Z,4.50
2023-04-24T04:08:33.612Z,5.68
2023-04-24T04:09:35.973Z,5.18
2023-04-24T04:10:38.301Z,4.75
2023-04-24T04:11:40.963Z,4.50
2023-04-24T04:12:43.290Z,4.05
2023-04-24T04:13:46.704Z,4.35
2023-04-24T04:14:49.081Z,4.57
2023-04-24T04:15:51.704Z,4.85
2023-04-24T04:16:55.022Z,4.03
2023-04-24T04:17:57.712Z,4.32
2023-04-24T04:19:00.354Z,4.18
2023-04-24T04:20:03.186Z,4.15
2023-04-24T04:21:05.957Z,3.75
2023-04-24T04:22:09.125Z,4.38
2023-04-24T04:23:17.177Z,4.43
2023-04-24T04:24:41.732Z,4.85
2023-04-24T04:25:45.327Z,4.35
2023-04-24T04:26:48.254Z,4.47
2023-04-24T04:28:00.582Z,4.68
2023-04-24T04:29:04.294Z,3.75
2023-04-24T04:30:08.699Z,3.70
2023-04-24T04:31:22.153Z,3.85
2023-04-24T04:32:25.240Z,4.05
2023-04-24T04:33:28.576Z,3.72
2023-04-24T04:34:32.406Z,4.20
2023-04-24T04:35:35.403Z,3.85
2023-04-24T04:36:38.067Z,3.05
2023-04-24T04:38:00.763Z,3.75
2023-04-24T04:39:23.510Z,3.80
2023-04-24T04:40:33.663Z,3.65
2023-04-24T04:41:41.504Z,3.20
2023-04-24T04:42:47.129Z,3.58
2023-04-24T04:43:50.021Z,4.28
2023-04-24T04:44:53.335Z,3.50
2023-04-24T04:46:01.864Z,3.60
2023-04-24T04:47:06.481Z,3.42
2023-04-24T04:48:13.811Z,3.10
2023-04-24T04:49:17.895Z,3.63
2023-04-24T04:50:21.671Z,3.05
2023-04-24T04:51:37.513Z,2.83
2023-04-24T04:52:40.284Z,3.55
2023-04-24T04:53:54.343Z,3.15
2023-04-24T04:54:56.933Z,3.05
2023-04-24T04:56:06.362Z,3.65
2023-04-24T04:57:13.536Z,3.92
2023-04-24T04:58:15.934Z,4.25
2023-04-24T04:59:19.972Z,3.50
2023-04-24T05:00:26.312Z,3.55
2023-04-24T05:01:29.249Z,4.22
2023-04-24T05:02:32.115Z,3.60
2023-04-24T05:03:35.063Z,4.40
2023-04-24T05:04:42.072Z,4.00
2023-04-24T05:05:44.636Z,3.65
2023-04-24T05:06:49.508Z,3.35
2023-04-24T05:07:51.791Z,4.00
2023-04-24T05:08:58.329Z,3.85
2023-04-24T05:10:20.000Z,3.60
2023-04-24T05:11:24.465Z,3.30
2023-04-24T05:12:27.928Z,4.13
2023-04-24T05:13:39.112Z,3.22
2023-04-24T05:15:00.877Z,2.83
2023-04-24T05:16:03.353Z,3.22
2023-04-24T05:17:06.899Z,2.90
2023-04-24T05:18:09.334Z,2.97
2023-04-24T05:19:12.954Z,3.00
2023-04-24T05:20:16.969Z,2.80
2023-04-24T05:21:19.427Z,3.10
2023-04-24T05:22:25.734Z,3.22
2023-04-24T05:23:28.622Z,3.30
2023-04-24T05:24:32.435Z,3.03
2023-04-24T05:25:56.436Z,3.00
2023-04-24T05:26:59.780Z,3.88
2023-04-24T05:28:08.562Z,3.20
2023-04-24T05:29:10.918Z,4.00
2023-04-24T05:30:13.815Z,3.00
2023-04-24T05:31:16.243Z,2.72
2023-04-24T05:32:18.665Z,2.92
2023-04-24T05:33:20.955Z,2.67
2023-04-24T05:34:23.405Z,3.00
2023-04-24T05:35:29.600Z,2.40
2023-04-24T05:36:32.230Z,2.83
2023-04-24T05:37:34.720Z,2.70
2023-04-24T05:38:37.365Z,2.55
2023-04-24T05:39:42.272Z,2.22
2023-04-24T05:40:44.780Z,2.10
2023-04-24T05:41:47.066Z,3.08
2023-04-24T05:42:49.371Z,2.83
2023-04-24T05:43:52.153Z,2.80
2023-04-24T05:44:57.876Z,3.53
2023-04-24T05:46:00.996Z,2.88
2023-04-24T05:47:03.412Z,2.30
2023-04-24T05:48:06.900Z,5.43
2023-04-24T05:49:11.472Z,2.00
2023-04-24T05:50:14.596Z,2.55
2023-04-24T05:51:16.991Z,2.45
2023-04-24T05:52:19.421Z,3.10
2023-04-24T05:53:21.980Z,2.58
2023-04-24T05:54:24.599Z,2.60
2023-04-24T05:55:27.771Z,2.22
2023-04-24T05:56:30.996Z,2.80
2023-04-24T05:57:34.838Z,2.03
2023-04-24T05:58:39.362Z,2.45
2023-04-24T05:59:42.136Z,2.60
2023-04-24T06:00:47.354Z,1.85
2023-04-24T06:01:49.785Z,2.45
2023-04-24T06:02:56.566Z,1.70
2023-04-24T06:03:59.117Z,2.10
2023-04-24T06:05:02.270Z,1.83
2023-04-24T06:06:04.891Z,1.90
2023-04-24T06:07:07.464Z,2.50
2023-04-24T06:08:11.236Z,2.20
2023-04-24T06:09:15.611Z,2.60
2023-04-24T06:10:18.258Z,2.60
2023-04-24T06:11:21.068Z,2.10
2023-04-24T06:12:23.978Z,3.03
2023-04-24T06:13:32.430Z,3.85
2023-04-24T06:15:01.469Z,3.03
2023-04-24T06:16:24.015Z,3.22
2023-04-24T06:17:35.700Z,3.10
2023-04-24T06:18:40.624Z,2.63
2023-04-24T06:19:43.334Z,2.95
2023-04-24T06:20:46.764Z,3.28
2023-04-24T06:21:49.395Z,5.47
2023-04-24T06:22:52.029Z,2.95
2023-04-24T06:23:55.090Z,5.32
2023-04-24T06:24:57.596Z,5.00
2023-04-24T06:26:00.892Z,3.75
2023-04-24T06:27:03.667Z,3.90
2023-04-24T06:28:06.127Z,3.20
2023-04-24T06:29:08.913Z,8.57
2023-04-24T06:30:12.253Z,9.55
2023-04-24T06:31:14.623Z,8.40
2023-04-24T06:32:17.170Z,8.55
2023-04-24T06:33:21.257Z,9.60
2023-04-24T06:34:24.664Z,10.35
2023-04-24T06:35:27.073Z,10.73
2023-04-24T06:36:29.590Z,10.20
2023-04-24T06:37:33.211Z,10.30
2023-04-24T06:38:35.694Z,7.60
2023-04-24T06:39:38.353Z,7.05
2023-04-24T06:40:40.692Z,6.72
2023-04-24T06:41:43.025Z,4.80
2023-04-24T06:42:54.538Z,6.95
2023-04-24T06:43:56.988Z,6.72
2023-04-24T06:44:59.271Z,5.93
2023-04-24T06:46:02.345Z,7.13
2023-04-24T06:47:04.699Z,9.20
2023-04-24T06:48:07.220Z,7.82
2023-04-24T06:49:09.572Z,10.68
2023-04-24T06:50:12.621Z,11.57
2023-04-24T06:51:14.914Z,12.10
2023-04-24T06:52:17.637Z,18.08
2023-04-24T06:53:20.693Z,18.80
2023-04-24T06:54:23.008Z,16.58
2023-04-24T06:55:25.504Z,13.63
2023-04-24T06:56:27.834Z,12.13
2023-04-24T06:57:30.773Z,11.82
2023-04-24T06:58:33.099Z,12.77
2023-04-24T06:59:35.643Z,11.57
2023-04-24T07:00:38.067Z,9.90
2023-04-24T07:01:40.677Z,9.60
2023-04-24T07:02:43.052Z,9.43
2023-04-24T07:03:45.927Z,9.57
2023-04-24T07:04:48.680Z,8.32
2023-04-24T07:05:51.052Z,8.23
2023-04-24T07:06:57.004Z,7.60
2023-04-24T07:07:59.432Z,7.00
2023-04-24T07:09:02.856Z,5.60
2023-04-24T07:10:06.282Z,4.53
2023-04-24T07:11:08.578Z,4.78
2023-04-24T07:12:14.556Z,5.03
2023-04-24T07:13:17.141Z,4.15
2023-04-24T07:14:19.552Z,4.20
2023-04-24T07:15:22.068Z,3.80
2023-04-24T07:16:24.354Z,5.55
2023-04-24T07:17:26.944Z,5.50
2023-04-24T07:18:30.014Z,4.57
2023-04-24T07:19:32.593Z,3.67
2023-04-24T07:20:35.694Z,4.70
2023-04-24T07:21:37.970Z,4.35
2023-04-24T07:22:40.227Z,3.83
2023-04-24T07:23:43.329Z,4.85
2023-04-24T07:24:46.150Z,3.67
2023-04-24T07:25:48.472Z,3.20
2023-04-24T07:26:52.992Z,4.20
2023-04-24T07:27:55.737Z,2.85
2023-04-24T07:28:58.202Z,2.33
2023-04-24T07:30:00.480Z,2.70
2023-04-24T07:31:02.785Z,2.35
2023-04-24T07:32:05.245Z,3.42
2023-04-24T07:33:07.996Z,3.70
2023-04-24T07:34:10.678Z,2.92
2023-04-24T07:35:13.042Z,3.03
2023-04-24T07:36:19.985Z,3.75
2023-04-24T07:37:22.735Z,4.68
2023-04-24T07:38:26.827Z,4.30
2023-04-24T07:39:30.255Z,3.20
2023-04-24T07:40:32.673Z,3.20
2023-04-24T07:41:35.099Z,2.90
2023-04-24T07:42:37.553Z,3.40
2023-04-24T07:43:40.137Z,6.68
2023-04-24T07:44:42.390Z,4.00
2023-04-24T07:45:45.112Z,3.70
2023-04-24T07:46:48.369Z,4.45
2023-04-24T07:47:51.948Z,2.70
2023-04-24T07:49:09.249Z,3.05
2023-04-24T07:50:15.131Z,3.30
2023-04-24T07:51:17.719Z,2.20
2023-04-24T07:52:19.956Z,2.20
2023-04-24T07:53:22.417Z,2.35
2023-04-24T07:54:24.654Z,2.20
2023-04-24T07:55:28.373Z,2.10
2023-04-24T07:56:32.535Z,2.00
2023-04-24T07:57:35.060Z,1.70
2023-04-24T07:58:37.597Z,1.85
2023-04-24T07:59:39.914Z,2.47
2023-04-24T08:00:42.460Z,2.15
2023-04-24T08:01:44.785Z,1.58
2023-04-24T08:02:47.141Z,2.25
2023-04-24T08:03:49.693Z,1.55
2023-04-24T08:04:52.745Z,2.80
2023-04-24T08:05:55.191Z,1.40
2023-04-24T08:06:57.567Z,1.90
2023-04-24T08:08:00.128Z,1.40
2023-04-24T08:09:02.844Z,3.08
2023-04-24T08:10:05.871Z,1.88
2023-04-24T08:11:08.250Z,1.60
2023-04-24T08:12:10.756Z,1.50
2023-04-24T08:13:13.020Z,2.28
2023-04-24T08:14:15.967Z,1.50
2023-04-24T08:15:18.947Z,1.65
2023-04-24T08:16:21.625Z,2.33
2023-04-24T08:17:23.960Z,1.92
2023-04-24T08:18:26.424Z,1.77
2023-04-24T08:19:29.051Z,1.98
2023-04-24T08:20:31.720Z,1.60
2023-04-24T08:21:34.061Z,2.20
2023-04-24T08:22:36.459Z,1.80
2023-04-24T08:23:38.847Z,2.80
2023-04-24T08:24:41.432Z,2.40
2023-04-24T08:25:43.750Z,2.88
2023-04-24T08:26:46.556Z,2.10
2023-04-24T08:27:48.773Z,2.47
2023-04-24T08:28:51.070Z,1.88
2023-04-24T08:29:55.179Z,1.40
2023-04-24T08:30:57.463Z,2.35
2023-04-24T08:31:59.978Z,1.43
2023-04-24T08:33:02.537Z,1.53
2023-04-24T08:34:04.819Z,1.50
2023-04-24T08:35:10.214Z,1.60
2023-04-24T08:36:12.553Z,1.57
2023-04-24T08:37:14.917Z,1.23
2023-04-24T08:38:17.851Z,1.60
2023-04-24T08:39:20.243Z,1.60
2023-04-24T08:40:30.042Z,1.80
2023-04-24T08:41:33.962Z,1.73
2023-04-24T08:42:38.226Z,2.23
2023-04-24T08:43:41.224Z,1.52
2023-04-24T08:44:44.434Z,1.20
2023-04-24T08:45:46.701Z,1.30
2023-04-24T08:46:50.210Z,1.48
2023-04-24T08:47:54.330Z,1.00
2023-04-24T08:48:57.903Z,1.30
2023-04-24T08:50:03.742Z,1.50
2023-04-24T08:51:08.731Z,2.05
2023-04-24T08:52:14.286Z,1.20
2023-04-24T08:53:17.262Z,1.80
2023-04-24T08:54:20.050Z,1.90
2023-04-24T08:55:22.399Z,2.20
2023-04-24T08:56:25.834Z,2.45
2023-04-24T08:57:28.529Z,3.33
2023-04-24T08:58:32.670Z,3.60
2023-04-24T08:59:36.343Z,3.78
2023-04-24T09:00:40.936Z,2.90
2023-04-24T09:01:43.942Z,2.70
2023-04-24T09:02:48.004Z,2.60
2023-04-24T09:03:51.209Z,2.17
2023-04-24T09:04:54.475Z,2.20
2023-04-24T09:05:57.088Z,3.30
2023-04-24T09:07:00.825Z,2.40
2023-04-24T09:08:03.983Z,1.83
2023-04-24T09:09:06.550Z,1.90
2023-04-24T09:10:09.221Z,3.27
2023-04-24T09:11:12.620Z,1.70
2023-04-24T09:12:15.496Z,1.70
2023-04-24T09:13:19.719Z,1.50
2023-04-24T09:14:22.482Z,1.20
2023-04-24T09:15:25.422Z,2.37
2023-04-24T09:16:28.109Z,1.53
2023-04-24T09:17:32.013Z,1.00
2023-04-24T09:18:36.265Z,1.50
2023-04-24T09:19:38.995Z,1.10
2023-04-24T09:21:13.476Z,1.30
2023-04-24T09:22:16.509Z,2.35
2023-04-24T09:23:19.330Z,1.43
2023-04-24T09:24:25.647Z,1.48
2023-04-24T09:25:36.834Z,1.20
2023-04-24T09:26:39.135Z,1.80
2023-04-24T09:27:46.370Z,1.30
2023-04-24T09:28:48.953Z,1.35
2023-04-24T09:29:57.881Z,2.17
2023-04-24T09:31:04.993Z,2.28
2023-04-24T09:32:22.946Z,1.20
2023-04-24T09:33:25.804Z,1.55
2023-04-24T09:34:28.727Z,1.60
2023-04-24T09:35:33.400Z,1.60
2023-04-24T09:36:39.398Z,1.50
2023-04-24T09:37:46.786Z,1.47
2023-04-24T09:38:49.072Z,1.10
2023-04-24T09:40:13.089Z,1.40
2023-04-24T09:41:16.204Z,1.27
2023-04-24T09:42:18.482Z,1.30
2023-04-24T09:43:20.807Z,1.33
2023-04-24T09:44:27.153Z,1.70
2023-04-24T09:45:41.936Z,1.83
2023-04-24T09:46:46.044Z,1.70
2023-04-24T09:47:53.517Z,1.77
2023-04-24T09:48:55.901Z,1.50
2023-04-24T09:50:00.463Z,1.80
2023-04-24T09:51:04.588Z,1.20
2023-04-24T09:52:11.527Z,1.17
2023-04-24T09:53:13.803Z,1.87
2023-04-24T09:54:18.417Z,1.83
2023-04-24T09:55:22.075Z,1.07
2023-04-24T09:56:27.395Z,1.50
2023-04-24T09:57:29.706Z,1.30
2023-04-24T09:58:32.220Z,1.23
2023-04-24T09:59:40.530Z,1.73
2023-04-24T10:00:42.893Z,1.50
2023-04-24T10:01:45.938Z,1.80
2023-04-24T10:02:52.060Z,1.67
2023-04-24T10:03:54.857Z,1.60
2023-04-24T10:05:00.414Z,1.20
2023-04-24T10:06:09.595Z,1.70
2023-04-24T10:07:11.925Z,1.60
2023-04-24T10:08:14.922Z,1.40
2023-04-24T10:09:19.944Z,1.90
2023-04-24T10:10:22.698Z,2.13
2023-04-24T10:11:27.586Z,1.90
2023-04-24T10:12:31.349Z,3.67
2023-04-24T10:13:33.935Z,1.53
2023-04-24T10:14:36.544Z,1.90
2023-04-24T10:15:41.674Z,1.48
2023-04-24T10:16:44.839Z,1.80
2023-04-24T10:17:53.573Z,1.77
2023-04-24T10:18:56.733Z,1.67
2023-04-24T10:20:01.485Z,1.30
2023-04-24T10:21:04.238Z,1.70
2023-04-24T10:22:08.822Z,1.40
2023-04-24T10:23:12.967Z,1.37
2023-04-24T10:24:16.951Z,1.10
2023-04-24T10:25:24.192Z,1.00
2023-04-24T10:26:27.677Z,1.27
2023-04-24T10:27:31.902Z,1.00
2023-04-24T10:28:36.435Z,1.50
2023-04-24T10:29:41.540Z,1.35
2023-04-24T10:30:44.416Z,1.20
2023-04-24T10:31:47.958Z,1.60
2023-04-24T10:32:50.844Z,1.53
2023-04-24T10:33:54.728Z,1.43
2023-04-24T10:34:57.753Z,1.50
2023-04-24T10:36:01.319Z,1.50
2023-04-24T10:37:04.413Z,1.63
2023-04-24T10:38:11.562Z,1.50
2023-04-24T10:39:16.728Z,1.57
2023-04-24T10:40:26.313Z,1.50
2023-04-24T10:41:28.680Z,2.58
2023-04-24T10:42:31.493Z,1.10
2023-04-24T10:43:35.044Z,1.10
2023-04-24T10:44:38.082Z,1.07
2023-04-24T10:45:41.060Z,1.60
2023-04-24T10:46:51.058Z,1.90
2023-04-24T10:48:02.529Z,2.37
2023-04-24T10:49:08.066Z,2.17
2023-04-24T10:50:13.213Z,2.00
2023-04-24T10:51:16.253Z,1.77
2023-04-24T10:52:18.759Z,1.47
2023-04-24T10:53:28.035Z,1.73
2023-04-24T10:54:42.072Z,1.35
2023-04-24T10:55:47.272Z,1.50
2023-04-24T10:56:50.960Z,2.35
2023-04-24T10:58:03.982Z,1.90
2023-04-24T10:59:10.778Z,1.00
2023-04-24T11:00:26.415Z,1.38
2023-04-24T11:01:35.872Z,1.50
2023-04-24T11:02:40.274Z,1.40
2023-04-24T11:03:55.196Z,1.40
2023-04-24T11:04:57.844Z,0.88
2023-04-24T11:06:08.046Z,1.80
2023-04-24T11:07:11.307Z,1.17
2023-04-24T11:08:22.468Z,1.50
2023-04-24T11:09:29.480Z,1.75
2023-04-24T11:10:31.706Z,1.60
2023-04-24T11:11:34.979Z,1.13
2023-04-24T11:12:38.682Z,1.50
2023-04-24T11:13:55.972Z,1.20
2023-04-24T11:14:59.143Z,1.25
2023-04-24T11:16:15.008Z,1.30
2023-04-24T11:17:35.757Z,1.33
2023-04-24T11:18:39.585Z,1.08
2023-04-24T11:19:42.376Z,1.40
2023-04-24T11:20:45.827Z,1.40
2023-04-24T11:22:15.624Z,3.30
2023-04-24T11:23:19.478Z,1.23
2023-04-24T11:24:29.858Z,1.90
2023-04-24T11:25:33.473Z,1.50
2023-04-24T11:26:39.437Z,1.98
2023-04-24T11:27:47.391Z,2.65
2023-04-24T11:28:50.732Z,1.23
2023-04-24T11:29:59.169Z,1.50
2023-04-24T11:31:38.302Z,1.63
2023-04-24T11:32:48.158Z,1.38
2023-04-24T11:33:50.737Z,1.57
2023-04-24T11:35:20.492Z,1.20
2023-04-24T11:36:23.022Z,1.47
2023-04-24T11:37:31.073Z,1.13
2023-04-24T11:38:33.814Z,1.43
2023-04-24T11:39:39.198Z,1.60
2023-04-24T11:40:41.658Z,1.43
2023-04-24T11:41:45.771Z,1.20
2023-04-24T11:42:49.613Z,1.80
2023-04-24T11:43:52.794Z,1.37
2023-04-24T11:45:01.419Z,1.60
2023-04-24T11:46:05.550Z,1.30
2023-04-24T11:47:09.580Z,1.50
2023-04-24T11:48:12.364Z,1.30
2023-04-24T11:49:14.865Z,1.40
2023-04-24T11:50:19.453Z,1.50
2023-04-24T11:51:23.109Z,1.10
2023-04-24T11:52:25.612Z,1.00
2023-04-24T11:53:29.416Z,1.47
2023-04-24T11:54:32.033Z,1.37
2023-04-24T11:55:36.901Z,1.30
2023-04-24T11:56:41.793Z,1.63
2023-04-24T11:57:49.064Z,1.40
2023-04-24T11:58:54.765Z,1.63
2023-04-24T11:59:57.054Z,1.60
2023-04-24T12:00:59.712Z,1.03
2023-04-24T12:02:02.012Z,0.83
2023-04-24T12:03:11.634Z,1.03
2023-04-24T12:04:15.454Z,1.00
2023-04-24T12:05:27.156Z,1.97
2023-04-24T12:06:29.677Z,1.20
2023-04-24T12:07:45.526Z,1.20
2023-04-24T12:08:49.014Z,1.20
2023-04-24T12:09:59.199Z,1.10
2023-04-24T12:11:03.078Z,0.90
2023-04-24T12:12:07.770Z,2.90
2023-04-24T12:13:12.437Z,2.50
2023-04-24T12:14:14.784Z,1.50
2023-04-24T12:15:18.210Z,2.20
2023-04-24T12:16:20.733Z,1.40
2023-04-24T12:17:32.017Z,1.57
2023-04-24T12:18:34.466Z,0.77
2023-04-24T12:19:36.950Z,3.10
2023-04-24T12:20:39.310Z,0.93
2023-04-24T12:21:41.631Z,1.07
2023-04-24T12:23:02.660Z,1.47
2023-04-24T12:24:07.917Z,1.23
2023-04-24T12:25:11.651Z,1.37
2023-04-24T12:26:20.700Z,1.27
2023-04-24T12:27:23.171Z,1.73
2023-04-24T12:28:25.490Z,0.80
2023-04-24T12:29:27.844Z,2.40
2023-04-24T12:30:32.191Z,0.90
2023-04-24T12:31:34.443Z,1.40
2023-04-24T12:32:41.634Z,1.37
2023-04-24T12:33:44.491Z,1.13
2023-04-24T12:34:46.746Z,1.03
2023-04-24T12:35:52.454Z,1.30
2023-04-24T12:36:54.703Z,1.13
2023-04-24T12:37:57.078Z,1.40
2023-04-24T12:38:59.345Z,1.50
2023-04-24T12:40:11.273Z,1.37
2023-04-24T12:41:14.995Z,1.40
2023-04-24T12:42:27.270Z,1.15
2023-04-24T12:43:29.519Z,0.90
2023-04-24T12:44:32.820Z,1.40
2023-04-24T12:45:35.090Z,2.90
2023-04-24T12:46:37.682Z,3.20
2023-04-24T12:47:41.219Z,1.30
2023-04-24T12:48:43.676Z,1.30
2023-04-24T12:49:46.297Z,1.60
2023-04-24T12:50:48.662Z,1.20
2023-04-24T12:51:51.323Z,1.13
2023-04-24T12:52:53.549Z,1.20
2023-04-24T12:53:56.640Z,1.37
2023-04-24T12:55:00.945Z,1.37
2023-04-24T12:56:03.225Z,1.37
2023-04-24T12:57:05.974Z,1.33
2023-04-24T12:58:08.347Z,1.30
2023-04-24T12:59:10.933Z,1.20
2023-04-24T13:00:14.022Z,1.13
2023-04-24T13:01:16.378Z,0.80
2023-04-24T13:02:19.090Z,1.27
2023-04-24T13:03:21.850Z,1.00
2023-04-24T13:04:24.420Z,2.77
2023-04-24T13:05:26.803Z,1.37
2023-04-24T13:06:29.141Z,1.47
2023-04-24T13:07:31.648Z,1.85
2023-04-24T13:08:33.962Z,1.70
2023-04-24T13:09:36.916Z,1.00
2023-04-24T13:10:39.638Z,1.20
2023-04-24T13:11:42.311Z,1.23
2023-04-24T13:12:47.620Z,1.10
2023-04-24T13:13:49.952Z,1.23
2023-04-24T13:14:52.525Z,1.67
2023-04-24T13:15:54.737Z,1.23
2023-04-24T13:16:57.629Z,1.23
2023-04-24T13:18:00.342Z,1.70
2023-04-24T13:19:02.596Z,3.30
2023-04-24T13:20:05.801Z,1.00
2023-04-24T13:21:08.136Z,1.33
2023-04-24T13:22:12.040Z,1.40
2023-04-24T13:23:14.553Z,1.15
2023-04-24T13:24:17.019Z,1.60
2023-04-24T13:25:21.445Z,1.13
2023-04-24T13:26:23.775Z,1.37
2023-04-24T13:27:26.038Z,1.30
2023-04-24T13:28:29.093Z,2.53
2023-04-24T13:29:31.491Z,1.00
2023-04-24T13:30:34.014Z,1.30
2023-04-24T13:31:38.359Z,1.17
2023-04-24T13:32:40.862Z,1.27
2023-04-24T13:33:43.441Z,1.20
2023-04-24T13:34:46.124Z,1.03
2023-04-24T13:35:48.339Z,2.77
2023-04-24T13:36:53.656Z,1.30
2023-04-24T13:37:56.171Z,2.07
2023-04-24T13:38:58.484Z,2.28
2023-04-24T13:40:01.368Z,2.60
2023-04-24T13:41:03.736Z,1.70
2023-04-24T13:42:06.081Z,1.20
2023-04-24T13:43:08.366Z,1.27
2023-04-24T13:44:10.774Z,1.63
2023-04-24T13:45:23.974Z,1.27
2023-04-24T13:46:27.856Z,1.20
2023-04-24T13:47:30.300Z,1.23
2023-04-24T13:48:32.562Z,1.40
2023-04-24T13:49:34.895Z,2.03
2023-04-24T13:50:37.617Z,1.43
2023-04-24T13:51:40.379Z,1.40
2023-04-24T13:52:42.718Z,2.83
2023-04-24T13:53:45.065Z,1.37
2023-04-24T13:54:47.730Z,1.52
2023-04-24T13:55:50.852Z,2.40
2023-04-24T13:56:53.677Z,7.67
2023-04-24T13:57:56.360Z,2.00
2023-04-24T13:58:58.912Z,1.57
2023-04-24T14:00:03.929Z,1.30
2023-04-24T14:01:09.437Z,3.25
2023-04-24T14:02:11.989Z,2.27
2023-04-24T14:03:14.635Z,1.85
2023-04-24T14:04:17.349Z,1.50
2023-04-24T14:05:19.945Z,1.67
2023-04-24T14:06:24.055Z,1.48
2023-04-24T14:07:26.837Z,1.92
2023-04-24T14:08:29.052Z,1.63
2023-04-24T14:09:31.307Z,1.95
2023-04-24T14:10:33.607Z,1.70
2023-04-24T14:11:36.132Z,2.42
2023-04-24T14:12:38.590Z,1.40
2023-04-24T14:13:44.750Z,4.35